Latest Coastal Weather Observations for Kingscote

IDS60701

Issued at 1:01 pm CDT Sunday 17 December 2017 (issued every 10 minutes, with the page automatically refreshed every 10 minutes)

About coastal observations | Map of coastal stations | Coastal observations for SA | Marine services | Other Formats
Station Details ID: 022841 Name: KINGSCOTE AERO Lat: -35.71 Lon: 137.52 Height: 6.23 m
Data from the previous 72 hours. | See also: Recent months at Kingscote
Date/Time
CDT
Temp
°C
Wind Pressure Rain since
9am
mm
Weather Cloud Vis
km
Sea
Height
m
Swell
Dir  Spd
kts
Gust
kts
hPa Trend Height
m
Period
s
Dir
17/01:00pm 24.2 ENE 7 9 1013.0 - 0.0 - Clear 10 - - - -
17/12:30pm 24.7 NE 8 11 1013.4 - 0.0 - - 10 - - - -
17/12:00pm 24.2 NE 6 9 1013.8 - 0.0 - Mostly cloudy 10 - - - -
17/11:30am 24.0 NE 8 11 1013.9 - 0.0 - - 10 - - - -
17/11:00am 23.8 ENE 8 11 1013.6 - 0.0 - - 10 - - - -
17/10:30am 22.9 E 8 9 1013.9 - 0.0 - - 10 - - - -
17/10:00am 22.3 ENE 10 12 1014.2 - 0.0 - - 10 - - - -
17/09:30am 21.6 ENE 12 15 1013.9 - 0.0 - - 10 - - - -
17/09:00am 20.6 ENE 12 16 1014.1 - 0.0 - Cloudy 10 - - - -
17/08:30am 20.2 E 11 15 1013.9 - 0.0 - - 10 - - - -
17/08:00am 18.7 E 6 11 1014.0 - 0.0 - - 10 - - - -
17/07:30am 17.1 SE 5 7 1014.0 - 0.0 - - 10 - - - -
17/07:00am 16.0 SSE 4 6 1014.0 - 0.0 - - 10 - - - -
17/06:30am 15.4 SE 6 8 1013.4 - 0.0 - - 10 - - - -
17/06:00am 14.8 SSE 5 5 1013.5 - 0.0 - - 10 - - - -
17/05:30am 15.3 ESE 7 9 1013.0 - 0.0 - - 10 - - - -
17/05:00am 15.8 SE 7 9 1013.1 - 0.0 - - 10 - - - -
17/04:30am 16.4 SE 7 9 1013.4 - 0.0 - - 10 - - - -
17/04:00am 16.3 SE 8 10 1013.5 - 0.0 - - 10 - - - -
17/03:30am 16.4 SE 9 11 1013.6 - 0.0 - - 10 - - - -
17/03:00am 15.8 ESE 7 9 1013.8 - 0.0 - Partly cloudy 10 - - - -
17/02:30am 15.4 ESE 7 9 1013.8 - 0.0 - - 10 - - - -
17/02:00am 15.5 ESE 6 7 1014.3 - 0.0 - - 10 - - - -
17/01:30am 15.6 SSE 5 6 1015.0 - 0.0 - - 10 - - - -
17/01:00am 15.3 SSE 5 6 1015.6 - 0.0 - - 10 - - - -
17/12:30am 15.9 SE 5 7 1015.6 - 0.0 - - 10 - - - -
17/12:00am 15.7 SE 5 6 1015.9 - 0.0 - Cloudy 10 - - - -
 
Date/Time
CDT
Temp
°C
Wind Pressure Rain since
9am
mm
Weather Cloud Vis
km
Sea
Height
m
Swell
Dir  Spd
kts
Gust
kts
hPa Trend Height
m
Period
s
Dir
16/11:30pm 15.5 SSE 4 5 1016.2 - 0.0 - - 10 - - - -
16/11:00pm 15.7 SSE 4 5 1016.2 - 0.0 - - 10 - - - -
16/10:30pm 16.2 SE 5 6 1016.1 - 0.0 - - 10 - - - -
16/10:00pm 16.9 SE 4 5 1016.2 - 0.0 - - 10 - - - -
16/09:30pm 17.3 SE 7 8 1015.9 - 0.0 - - 10 - - - -
16/09:00pm 17.9 SSE 7 11 1015.9 - 0.0 - Partly cloudy 10 - - - -
16/08:30pm 18.3 SE 9 11 1015.7 - 0.0 - - 10 - - - -
16/08:00pm 18.8 SSE 11 14 1015.8 - 0.0 - - 10 - - - -
16/07:30pm 20.1 SSE 12 14 1015.5 - 0.0 - - 10 - - - -
16/07:00pm 20.4 SE 12 15 1015.1 - 0.0 - - 10 - - - -
16/06:30pm 21.5 SE 13 17 1014.7 - 0.0 - - 10 - - - -
16/06:00pm 21.8 SSE 13 17 1014.6 - 0.0 - - 10 - - - -
16/05:30pm 23.2 SE 13 19 1014.3 - 0.0 - - 10 - - - -
16/05:00pm 24.0 E 9 16 1014.4 - 0.0 - - 10 - - - -
16/04:30pm 23.9 E 10 15 1014.5 - 0.0 - Partly cloudy 10 - - - -
16/04:00pm 24.2 E 10 14 1014.5 - 0.0 - Partly cloudy 10 - - - -
16/03:30pm 23.8 E 11 16 1014.7 - 0.0 - Partly cloudy 10 - - - -
16/03:00pm 23.0 E 12 17 1014.8 - 0.0 - Mostly clear 10 - - - -
16/02:30pm 23.5 ENE 9 14 1015.2 - 0.0 - Partly cloudy 10 - - - -
16/02:00pm 23.4 E 11 16 1015.4 - 0.0 - Partly cloudy 10 - - - -
16/01:30pm 22.5 E 9 15 1015.4 - 0.0 - Partly cloudy 10 - - - -
16/01:00pm 24.1 ENE 7 16 1015.5 - 0.0 - Partly cloudy 10 - - - -
16/12:30pm 23.2 NE 9 13 1015.7 - 0.0 - Partly cloudy 10 - - - -
16/12:00pm 23.1 NE 12 16 1015.7 - 0.0 - - 10 - - - -
16/11:30am 23.3 SSE 6 13 1015.9 - 0.0 - Partly cloudy 10 - - - -
16/11:00am 23.0 S 3 7 1015.9 - 0.0 - Partly cloudy 10 - - - -
16/10:30am 22.7 S 3 7 1016.1 - 0.0 - Partly cloudy 10 - - - -
16/10:00am 20.9 SE 4 5 1016.2 - 0.0 - Partly cloudy 10 - - - -
16/09:30am 20.1 SE 4 6 1016.2 - 0.0 - Partly cloudy 10 - - - -
16/09:00am 18.8 S 5 8 1016.3 - 0.0 - - 10 - - - -
16/08:30am 17.4 CALM 0 0 1016.1 - 0.0 - - 10 - - - -
16/08:00am 15.9 CALM 0 0 1015.8 - 0.0 - - 10 - - - -
16/07:30am 13.7 CALM 0 0 1015.6 - 0.0 - - 10 - - - -
16/07:00am 10.5 CALM 0 0 1015.3 - 0.0 - - 10 - - - -
16/06:30am 8.8 CALM 0 0 1014.9 - 0.0 - - 10 - - - -
16/06:00am 9.1 CALM 0 0 1014.2 - 0.0 - - 10 - - - -
16/05:30am 8.4 CALM 0 0 1014.0 - 0.0 - - 10 - - - -
16/05:00am 9.2 CALM 0 0 1013.8 - 0.0 - - 10 - - - -
16/04:30am 9.7 CALM 0 0 1013.5 - 0.0 - - 10 - - - -
16/04:00am 9.2 CALM 0 0 1013.6 - 0.0 - - 10 - - - -
16/03:30am 9.8 CALM 0 0 1013.7 - 0.0 - - 10 - - - -
16/03:00am 10.2 CALM 0 0 1013.8 - 0.0 - - 10 - - - -
16/02:30am 10.4 WSW 2 4 1013.9 - 0.0 - - 10 - - - -
16/02:00am 10.6 WSW 3 4 1013.9 - 0.0 - - 10 - - - -
16/01:30am 11.3 WSW 1 3 1013.8 - 0.0 - - 10 - - - -
16/01:00am 11.5 WSW 5 5 1013.8 - 0.0 - - 10 - - - -
16/12:30am 12.7 WSW 5 5 1014.0 - 0.0 - - 10 - - - -
16/12:00am 13.4 WSW 5 6 1014.1 - 0.0 - - 10 - - - -
 
Date/Time
CDT
Temp
°C
Wind Pressure Rain since
9am
mm
Weather Cloud Vis
km
Sea
Height
m
Swell
Dir  Spd
kts
Gust
kts
hPa Trend Height
m
Period
s
Dir
15/11:30pm 14.7 W 6 6 1014.3 - 0.0 - - 10 - - - -
15/11:00pm 16.1 W 4 5 1014.4 - 0.0 - - 10 - - - -
15/10:30pm 16.5 WSW 3 5 1014.3 - 0.0 - - 10 - - - -
15/10:00pm 17.3 WSW 6 7 1014.0 - 0.0 - Cloudy 10 - - - -
15/09:30pm 18.4 WSW 7 9 1013.5 - 0.0 - Partly cloudy 10 - - - -
15/09:00pm 19.4 W 7 13 1013.0 - 0.0 - Mostly cloudy 10 - - - -
15/08:30pm 19.3 SE 7 9 1012.8 - 0.0 - Partly cloudy 10 - - - -
15/08:00pm 20.0 SSE 8 10 1012.6 - 0.0 - - 10 - - - -
15/07:30pm 20.2 SSE 9 13 1012.4 - 0.0 - - 10 - - - -
15/07:00pm 21.6 S 10 17 1012.1 - 0.0 - Partly cloudy 10 - - - -
15/06:30pm 21.8 S 12 16 1011.9 - 0.0 - Partly cloudy 10 - - - -
15/06:00pm 22.6 S 14 18 1011.6 - 0.0 - Partly cloudy 10 - - - -
15/05:30pm 22.9 SSE 9 13 1011.6 - 0.0 - Partly cloudy 10 - - - -
15/05:00pm 22.0 SE 13 17 1011.7 - 0.0 - Cloudy 10 - - - -
15/04:30pm 22.8 SSE 16 21 1011.7 - 0.0 - Partly cloudy 10 - - - -
15/04:00pm 23.2 S 18 25 1011.2 - 0.0 - Partly cloudy 10 - - - -
15/03:30pm 25.1 S 13 23 1011.1 - 0.0 - Partly cloudy 10 - - - -
15/03:28pm 25.4 S 10 22 1011.0 - 0.0 - Partly cloudy 10 - - - -
15/03:00pm 23.2 S 7 10 1011.2 - 0.0 - Partly cloudy 10 - - - -
15/02:30pm 23.2 N 9 17 1011.4 - 0.0 - Partly cloudy 10 - - - -
15/02:00pm 22.4 N 13 19 1012.0 - 0.0 - Partly cloudy 10 - - - -
15/01:30pm 22.7 NNW 13 17 1012.3 - 0.0 - - 10 - - - -
15/01:00pm 23.1 NW 11 18 1012.7 - 0.0 - - 10 - - - -
15/12:30pm 21.5 NW 9 16 1013.1 - 0.0 - Partly cloudy 10 - - - -
15/12:00pm 20.8 N 8 16 1013.4 - 0.0 - Mostly cloudy 10 - - - -
15/11:30am 20.3 N 8 16 1013.6 - 0.0 - Partly cloudy 10 - - - -
15/11:00am 21.3 NNW 7 12 1013.6 - 0.0 - Partly cloudy 10 - - - -
15/10:30am 20.5 NE 6 9 1013.7 - 0.0 - Partly cloudy 10 - - - -
15/10:00am 20.0 NE 6 10 1013.9 - 0.0 - Partly cloudy 10 - - - -
15/09:30am 18.7 N 5 7 1014.1 - 0.0 - - 10 - - - -
15/09:00am 18.6 CALM 0 0 1014.2 - 0.0 - - 10 - - - -
15/08:30am 17.7 N 1 4 1014.3 - 0.0 - - 10 - - - -
15/08:00am 15.6 W 3 4 1014.3 - 0.0 - - 10 - - - -
15/07:30am 12.7 NW 4 5 1014.2 - 0.0 - - 10 - - - -
15/07:00am 10.4 W 4 5 1014.1 - 0.0 - - 10 - - - -
15/06:30am 8.3 WSW 2 3 1013.9 - 0.0 - - 10 - - - -
15/06:00am 7.6 WSW 5 6 1013.8 - 0.0 - - 10 - - - -
15/05:30am 7.9 SSW 3 4 1013.5 - 0.0 - - 10 - - - -
15/05:00am 8.0 CALM 0 0 1013.2 - 0.0 - - 10 - - - -
15/04:30am 9.0 CALM 0 0 1012.9 - 0.0 - - 10 - - - -
15/04:00am 8.7 CALM 0 0 1013.0 - 0.0 - Partly cloudy 10 - - - -
15/03:30am 9.2 CALM 0 0 1013.2 - 0.0 - Partly cloudy 10 - - - -
15/03:00am 8.7 NW 3 4 1013.4 - 0.0 - - 10 - - - -
15/02:30am 10.2 NNW 3 4 1013.6 - 0.0 - - 10 - - - -
15/02:00am 11.3 NNW 3 4 1013.8 - 0.0 - - 10 - - - -
15/01:30am 11.0 W 4 5 1014.0 - 0.0 - - 10 - - - -
15/01:00am 11.8 SW 2 4 1014.0 - 0.0 - - 10 - - - -
15/12:30am 12.0 SSW 5 8 1014.2 - 0.0 - - 10 - - - -
15/12:00am 11.4 SSW 4 6 1014.4 - 0.0 - - 10 - - - -
 
Date/Time
CDT
Temp
°C
Wind Pressure Rain since
9am
mm
Weather Cloud Vis
km
Sea
Height
m
Swell
Dir  Spd
kts
Gust
kts
hPa Trend Height
m
Period
s
Dir
14/11:30pm 12.6 SSW 8 8 1014.5 - 0.0 - - 10 - - - -
14/11:00pm 13.4 CALM 0 0 1014.8 - 0.0 - - 10 - - - -
14/10:30pm 13.6 SSW 7 7 1014.7 - 0.0 - Partly cloudy 10 - - - -
14/10:00pm 15.6 S 5 6 1014.5 - 0.0 - Cloudy 10 - - - -
14/09:30pm 16.0 S 5 6 1014.3 - 0.0 - Cloudy 10 - - - -
14/09:00pm 16.5 S 7 9 1014.1 - 0.0 - Partly cloudy 10 - - - -
14/08:30pm 17.0 S 8 10 1013.9 - 0.0 - - 10 - - - -
14/08:00pm 18.1 S 11 14 1013.6 - 0.0 - - 10 - - - -
14/07:30pm 19.0 SSW 12 15 1013.0 - 0.0 - Partly cloudy 10 - - - -
14/07:00pm 20.1 S 13 16 1012.8 - 0.0 - Partly cloudy 10 - - - -
14/06:30pm 20.5 SSW 14 17 1012.4 - 0.0 - Partly cloudy 10 - - - -
14/06:00pm 20.7 SE 5 9 1012.4 - 0.0 - Mostly cloudy 10 - - - -
14/05:30pm 20.4 ENE 9 13 1012.2 - 0.0 - Cloudy 10 - - - -
14/05:00pm 20.7 E 11 15 1012.2 - 0.0 - Partly cloudy 10 - - - -
14/04:30pm 21.1 SE 14 18 1012.3 - 0.0 - Cloudy 10 - - - -
14/04:00pm 23.4 SSW 13 19 1012.2 - 0.0 - Partly cloudy 10 - - - -
14/03:30pm 22.8 SSW 13 21 1012.1 - 0.0 - Partly cloudy 10 - - - -
14/03:00pm 22.6 SSW 8 13 1012.0 - 0.0 - Cloudy 10 - - - -
14/02:30pm 23.2 SE 9 16 1012.0 - 0.0 - Partly cloudy 10 - - - -
14/02:00pm 22.8 S 11 16 1011.8 - 0.0 - Partly cloudy 10 - - - -
14/01:30pm 23.1 SSW 13 19 1012.0 - 0.0 - Partly cloudy 10 - - - -

Other Formats:

Comma delimited format used in spreadsheet applications
http://www.bom.gov.au/fwo/IDS60701/IDS60701.95807.axf

JavaScript Object Notation format (JSON) in row-major order
http://www.bom.gov.au/fwo/IDS60701/IDS60701.95807.json